sensor_id;sensor_type;location;lat;lon;timestamp;pressure;altitude;pressure_sealevel;temperature;humidity
35878;BME280;21982;49.804;24.072;2022-09-28T00:01:36;95541.66;;;12.41;73.35
35878;BME280;21982;49.804;24.072;2022-09-28T00:04:08;95378.78;;;11.58;73.06
35878;BME280;21982;49.804;24.072;2022-09-28T00:06:33;95410.91;;;11.62;73.36
35878;BME280;21982;49.804;24.072;2022-09-28T00:09:03;95572.88;;;12.89;73.28
35878;BME280;21982;49.804;24.072;2022-09-28T00:11:34;95607.75;;;12.93;73.78
35878;BME280;21982;49.804;24.072;2022-09-28T00:14:03;95300.94;;;11.14;73.32
35878;BME280;21982;49.804;24.072;2022-09-28T00:16:36;95605.72;;;13.00;73.82
35878;BME280;21982;49.804;24.072;2022-09-28T00:19:03;95574.81;;;12.94;73.85
35878;BME280;21982;49.804;24.072;2022-09-28T00:21:35;95305.84;;;11.22;73.89
35878;BME280;21982;49.804;24.072;2022-09-28T00:24:05;95551.81;;;12.83;73.96
35878;BME280;21982;49.804;24.072;2022-09-28T00:29:19;95570.41;;;12.83;73.99
35878;BME280;21982;49.804;24.072;2022-09-28T00:31:49;95492.84;;;12.25;74.15
35878;BME280;21982;49.804;24.072;2022-09-28T00:34:16;95529.56;;;12.50;74.31
35878;BME280;21982;49.804;24.072;2022-09-28T00:36:51;95559.72;;;12.78;74.33
35878;BME280;21982;49.804;24.072;2022-09-28T00:39:22;95554.66;;;12.76;74.33
35878;BME280;21982;49.804;24.072;2022-09-28T00:41:51;95149.69;;;9.98;74.18
35878;BME280;21982;49.804;24.072;2022-09-28T00:44:34;95551.69;;;12.72;74.50
35878;BME280;21982;49.804;24.072;2022-09-28T00:50:13;95537.19;;;12.63;74.73
35878;BME280;21982;49.804;24.072;2022-09-28T00:55:37;95566.00;;;12.55;74.87
35878;BME280;21982;49.804;24.072;2022-09-28T00:58:10;95066.78;;;9.48;74.95
35878;BME280;21982;49.804;24.072;2022-09-28T01:00:43;95410.41;;;11.48;75.15
35878;BME280;21982;49.804;24.072;2022-09-28T01:03:10;95322.38;;;11.13;75.14
35878;BME280;21982;49.804;24.072;2022-09-28T01:05:38;95529.50;;;12.45;75.41
35878;BME280;21982;49.804;24.072;2022-09-28T01:08:06;95396.63;;;11.63;75.43
35878;BME280;21982;49.804;24.072;2022-09-28T01:10:33;95533.78;;;12.46;75.73
35878;BME280;21982;49.804;24.072;2022-09-28T01:13:02;95541.22;;;12.49;75.65
35878;BME280;21982;49.804;24.072;2022-09-28T01:15:28;95542.47;;;12.41;75.77
35878;BME280;21982;49.804;24.072;2022-09-28T01:21:09;95542.28;;;12.48;75.73
35878;BME280;21982;49.804;24.072;2022-09-28T01:24:15;95546.72;;;12.43;75.90
35878;BME280;21982;49.804;24.072;2022-09-28T01:26:54;95549.84;;;12.39;76.26
35878;BME280;21982;49.804;24.072;2022-09-28T01:29:33;95545.34;;;12.40;76.15
35878;BME280;21982;49.804;24.072;2022-09-28T01:32:35;95528.94;;;12.26;76.30
35878;BME280;21982;49.804;24.072;2022-09-28T01:35:19;95545.28;;;12.35;76.63
35878;BME280;21982;49.804;24.072;2022-09-28T01:40:37;95545.59;;;12.38;76.54
35878;BME280;21982;49.804;24.072;2022-09-28T01:45:54;95428.13;;;11.76;76.60
35878;BME280;21982;49.804;24.072;2022-09-28T01:48:56;95545.00;;;12.53;76.26
35878;BME280;21982;49.804;24.072;2022-09-28T01:51:40;95541.31;;;12.54;76.55
35878;BME280;21982;49.804;24.072;2022-09-28T01:54:20;95514.16;;;12.30;76.29
35878;BME280;21982;49.804;24.072;2022-09-28T01:56:56;95535.06;;;12.44;76.62
35878;BME280;21982;49.804;24.072;2022-09-28T01:59:27;95544.53;;;12.56;76.83
35878;BME280;21982;49.804;24.072;2022-09-28T02:02:04;95469.69;;;12.21;76.82
35878;BME280;21982;49.804;24.072;2022-09-28T02:04:34;95552.88;;;12.65;77.05
35878;BME280;21982;49.804;24.072;2022-09-28T02:07:07;95512.59;;;12.51;76.77
35878;BME280;21982;49.804;24.072;2022-09-28T02:09:42;95550.16;;;12.77;77.17
35878;BME280;21982;49.804;24.072;2022-09-28T02:12:42;95569.88;;;12.81;76.72
35878;BME280;21982;49.804;24.072;2022-09-28T02:15:29;95547.97;;;12.73;76.59
35878;BME280;21982;49.804;24.072;2022-09-28T02:18:09;95559.59;;;12.89;76.90
35878;BME280;21982;49.804;24.072;2022-09-28T02:20:39;95557.69;;;12.85;77.19
35878;BME280;21982;49.804;24.072;2022-09-28T02:23:09;95581.00;;;12.99;77.72
35878;BME280;21982;49.804;24.072;2022-09-28T02:25:50;95579.06;;;13.12;77.26
35878;BME280;21982;49.804;24.072;2022-09-28T02:28:26;95606.78;;;13.16;77.30
35878;BME280;21982;49.804;24.072;2022-09-28T02:30:59;95177.75;;;10.45;77.31
35878;BME280;21982;49.804;24.072;2022-09-28T02:33:43;95584.69;;;13.15;77.11
35878;BME280;21982;49.804;24.072;2022-09-28T02:36:16;95369.06;;;11.81;76.87
35878;BME280;21982;49.804;24.072;2022-09-28T02:38:48;95549.81;;;12.73;77.00
35878;BME280;21982;49.804;24.072;2022-09-28T02:49:33;95615.78;;;13.15;77.20
35878;BME280;21982;49.804;24.072;2022-09-28T03:00:44;95182.72;;;10.74;76.63
35878;BME280;21982;49.804;24.072;2022-09-28T03:03:19;95268.31;;;11.08;76.64
35878;BME280;21982;49.804;24.072;2022-09-28T03:05:58;95272.94;;;11.35;76.65
35878;BME280;21982;49.804;24.072;2022-09-28T03:11:25;95543.69;;;13.11;76.89
35878;BME280;21982;49.804;24.072;2022-09-28T03:14:04;95552.16;;;13.08;76.82
35878;BME280;21982;49.804;24.072;2022-09-28T03:16:33;95494.97;;;12.62;77.08
35878;BME280;21982;49.804;24.072;2022-09-28T03:19:02;95582.16;;;13.25;76.79
35878;BME280;21982;49.804;24.072;2022-09-28T03:21:36;95586.91;;;13.23;76.71
35878;BME280;21982;49.804;24.072;2022-09-28T03:24:22;95599.03;;;13.14;77.18
35878;BME280;21982;49.804;24.072;2022-09-28T03:27:03;95581.28;;;13.20;76.86
35878;BME280;21982;49.804;24.072;2022-09-28T03:29:29;95420.88;;;12.22;77.20
35878;BME280;21982;49.804;24.072;2022-09-28T03:32:04;95578.09;;;13.01;76.42
35878;BME280;21982;49.804;24.072;2022-09-28T03:34:37;95577.13;;;13.07;77.05
35878;BME280;21982;49.804;24.072;2022-09-28T03:37:03;95066.94;;;9.69;76.73
35878;BME280;21982;49.804;24.072;2022-09-28T03:39:34;95329.63;;;11.51;76.65
35878;BME280;21982;49.804;24.072;2022-09-28T03:42:06;95349.31;;;11.38;76.88
35878;BME280;21982;49.804;24.072;2022-09-28T03:44:36;95487.75;;;12.40;76.64
35878;BME280;21982;49.804;24.072;2022-09-28T03:47:07;95569.66;;;13.04;76.80
35878;BME280;21982;49.804;24.072;2022-09-28T03:49:33;95342.63;;;11.52;76.88
35878;BME280;21982;49.804;24.072;2022-09-28T03:52:14;95571.81;;;13.07;76.65
35878;BME280;21982;49.804;24.072;2022-09-28T03:54:49;95538.88;;;12.69;76.65
35878;BME280;21982;49.804;24.072;2022-09-28T03:57:17;95502.53;;;12.53;76.55
35878;BME280;21982;49.804;24.072;2022-09-28T03:59:52;95602.56;;;13.03;76.93
35878;BME280;21982;49.804;24.072;2022-09-28T04:02:24;95386.34;;;11.83;76.22
35878;BME280;21982;49.804;24.072;2022-09-28T04:04:50;95417.84;;;11.96;76.83
35878;BME280;21982;49.804;24.072;2022-09-28T04:07:18;95338.47;;;11.39;76.43
35878;BME280;21982;49.804;24.072;2022-09-28T04:09:54;95132.22;;;9.97;76.27
35878;BME280;21982;49.804;24.072;2022-09-28T04:12:31;95605.88;;;13.10;76.50
35878;BME280;21982;49.804;24.072;2022-09-28T04:15:03;95136.69;;;9.97;76.40
35878;BME280;21982;49.804;24.072;2022-09-28T04:17:38;95178.44;;;10.23;76.59
35878;BME280;21982;49.804;24.072;2022-09-28T04:20:14;95161.44;;;10.07;76.48
35878;BME280;21982;49.804;24.072;2022-09-28T04:22:43;95615.31;;;13.01;76.73
35878;BME280;21982;49.804;24.072;2022-09-28T04:25:14;95634.47;;;13.03;76.37
35878;BME280;21982;49.804;24.072;2022-09-28T04:27:51;95653.94;;;13.08;76.41
35878;BME280;21982;49.804;24.072;2022-09-28T04:30:36;95398.69;;;11.61;76.52
35878;BME280;21982;49.804;24.072;2022-09-28T04:33:04;95227.16;;;10.39;75.85
35878;BME280;21982;49.804;24.072;2022-09-28T04:35:30;95655.72;;;13.03;76.25
35878;BME280;21982;49.804;24.072;2022-09-28T04:38:03;95457.97;;;11.55;76.40
35878;BME280;21982;49.804;24.072;2022-09-28T04:40:35;95369.06;;;11.30;75.82
35878;BME280;21982;49.804;24.072;2022-09-28T04:43:04;95365.16;;;11.04;76.51
35878;BME280;21982;49.804;24.072;2022-09-28T04:45:34;95637.44;;;12.90;76.33
35878;BME280;21982;49.804;24.072;2022-09-28T04:48:06;95363.69;;;10.97;76.11
35878;BME280;21982;49.804;24.072;2022-09-28T04:50:41;95660.56;;;12.72;76.17
35878;BME280;21982;49.804;24.072;2022-09-28T04:53:13;95154.88;;;9.53;75.96
35878;BME280;21982;49.804;24.072;2022-09-28T04:55:39;95660.97;;;12.64;76.20
35878;BME280;21982;49.804;24.072;2022-09-28T04:58:14;95395.25;;;10.98;75.92
35878;BME280;21982;49.804;24.072;2022-09-28T05:00:56;95648.81;;;12.68;76.05
35878;BME280;21982;49.804;24.072;2022-09-28T05:03:35;95481.88;;;11.71;75.64
35878;BME280;21982;49.804;24.072;2022-09-28T05:06:01;95658.53;;;12.63;75.96
35878;BME280;21982;49.804;24.072;2022-09-28T05:08:36;95479.28;;;11.60;75.72
35878;BME280;21982;49.804;24.072;2022-09-28T05:11:09;95455.06;;;11.39;75.94
35878;BME280;21982;49.804;24.072;2022-09-28T05:13:45;95655.72;;;12.69;75.75
35878;BME280;21982;49.804;24.072;2022-09-28T05:16:20;95616.47;;;12.38;75.61
35878;BME280;21982;49.804;24.072;2022-09-28T05:19:01;95674.72;;;12.61;75.19
35878;BME280;21982;49.804;24.072;2022-09-28T05:21:27;95538.31;;;11.55;75.76
35878;BME280;21982;49.804;24.072;2022-09-28T05:23:57;95465.72;;;11.28;75.59
35878;BME280;21982;49.804;24.072;2022-09-28T05:26:23;95382.81;;;10.70;75.76
35878;BME280;21982;49.804;24.072;2022-09-28T05:28:49;95230.53;;;9.71;75.56
35878;BME280;21982;49.804;24.072;2022-09-28T05:31:18;95491.03;;;11.35;75.58
35878;BME280;21982;49.804;24.072;2022-09-28T05:33:44;95504.97;;;11.59;75.66
35878;BME280;21982;49.804;24.072;2022-09-28T05:36:10;95239.94;;;9.90;75.71
35878;BME280;21982;49.804;24.072;2022-09-28T05:38:46;95488.06;;;11.49;75.49
35878;BME280;21982;49.804;24.072;2022-09-28T05:41:19;95386.88;;;10.90;75.18
35878;BME280;21982;49.804;24.072;2022-09-28T05:43:50;95681.25;;;12.70;75.60
35878;BME280;21982;49.804;24.072;2022-09-28T05:46:19;95583.25;;;11.90;75.68
35878;BME280;21982;49.804;24.072;2022-09-28T05:48:46;95673.84;;;12.72;75.34
35878;BME280;21982;49.804;24.072;2022-09-28T05:51:20;95681.66;;;12.79;75.08
35878;BME280;21982;49.804;24.072;2022-09-28T05:53:49;95678.44;;;12.77;75.58
35878;BME280;21982;49.804;24.072;2022-09-28T05:56:24;95623.03;;;12.52;75.14
35878;BME280;21982;49.804;24.072;2022-09-28T05:58:53;95700.31;;;12.84;75.11
35878;BME280;21982;49.804;24.072;2022-09-28T06:01:26;95510.75;;;11.85;75.17
35878;BME280;21982;49.804;24.072;2022-09-28T06:04:04;95590.63;;;12.33;74.62
35878;BME280;21982;49.804;24.072;2022-09-28T06:06:39;95665.06;;;13.05;74.41
35878;BME280;21982;49.804;24.072;2022-09-28T06:09:10;95395.78;;;11.46;74.63
35878;BME280;21982;49.804;24.072;2022-09-28T06:11:36;95521.06;;;12.15;74.16
35878;BME280;21982;49.804;24.072;2022-09-28T06:14:03;95662.84;;;13.36;74.26
35878;BME280;21982;49.804;24.072;2022-09-28T06:16:32;95468.16;;;12.25;73.51
35878;BME280;21982;49.804;24.072;2022-09-28T06:19:01;95706.06;;;13.65;73.67
35878;BME280;21982;49.804;24.072;2022-09-28T06:21:30;95533.56;;;12.69;73.63
35878;BME280;21982;49.804;24.072;2022-09-28T06:23:58;95692.28;;;13.68;73.10
35878;BME280;21982;49.804;24.072;2022-09-28T06:26:27;95592.41;;;12.78;73.16
35878;BME280;21982;49.804;24.072;2022-09-28T06:28:53;95628.59;;;13.01;73.13
35878;BME280;21982;49.804;24.072;2022-09-28T06:31:25;95543.88;;;12.66;73.32
35878;BME280;21982;49.804;24.072;2022-09-28T06:33:50;95651.34;;;13.30;73.13
35878;BME280;21982;49.804;24.072;2022-09-28T06:36:16;95674.31;;;13.36;73.28
35878;BME280;21982;49.804;24.072;2022-09-28T06:38:46;95703.47;;;13.70;72.46
35878;BME280;21982;49.804;24.072;2022-09-28T06:41:12;95640.84;;;13.40;72.65
35878;BME280;21982;49.804;24.072;2022-09-28T06:43:42;95671.00;;;13.68;72.25
35878;BME280;21982;49.804;24.072;2022-09-28T06:46:14;95602.69;;;13.52;71.63
35878;BME280;21982;49.804;24.072;2022-09-28T06:48:43;95731.91;;;14.35;70.81
35878;BME280;21982;49.804;24.072;2022-09-28T06:51:11;95717.69;;;14.24;70.16
35878;BME280;21982;49.804;24.072;2022-09-28T06:53:37;95722.09;;;14.14;70.48
35878;BME280;21982;49.804;24.072;2022-09-28T06:56:03;95685.53;;;13.82;70.28
35878;BME280;21982;49.804;24.072;2022-09-28T06:58:34;95602.25;;;13.60;70.45
35878;BME280;21982;49.804;24.072;2022-09-28T07:01:09;95732.44;;;14.59;69.33
35878;BME280;21982;49.804;24.072;2022-09-28T07:03:43;95391.41;;;12.62;68.55
35878;BME280;21982;49.804;24.072;2022-09-28T07:06:10;95629.00;;;14.19;68.56
35878;BME280;21982;49.804;24.072;2022-09-28T07:08:36;95661.03;;;14.56;68.26
35878;BME280;21982;49.804;24.072;2022-09-28T07:11:09;95448.59;;;13.13;67.03
35878;BME280;21982;49.804;24.072;2022-09-28T07:13:38;95318.31;;;12.11;67.45
35878;BME280;21982;49.804;24.072;2022-09-28T07:16:13;95754.66;;;15.28;67.64
35878;BME280;21982;49.804;24.072;2022-09-28T07:18:43;95340.47;;;12.92;65.87
35878;BME280;21982;49.804;24.072;2022-09-28T07:21:09;95488.19;;;14.54;65.48
35878;BME280;21982;49.804;24.072;2022-09-28T07:23:55;95752.16;;;16.63;63.98
35878;BME280;21982;49.804;24.072;2022-09-28T07:26:27;95761.97;;;16.27;63.34
35878;BME280;21982;49.804;24.072;2022-09-28T07:28:53;95623.75;;;14.93;64.09
35878;BME280;21982;49.804;24.072;2022-09-28T07:31:41;95696.63;;;15.03;64.28
35878;BME280;21982;49.804;24.072;2022-09-28T07:34:10;95652.44;;;14.22;65.02
35878;BME280;21982;49.804;24.072;2022-09-28T07:36:39;95611.75;;;13.99;64.91
35878;BME280;21982;49.804;24.072;2022-09-28T07:39:04;95631.63;;;13.92;64.95
35878;BME280;21982;49.804;24.072;2022-09-28T07:41:32;95774.28;;;15.12;65.00
35878;BME280;21982;49.804;24.072;2022-09-28T07:44:04;95411.63;;;12.90;64.32
35878;BME280;21982;49.804;24.072;2022-09-28T07:46:32;95761.53;;;15.19;64.25
35878;BME280;21982;49.804;24.072;2022-09-28T07:48:58;95543.03;;;14.97;63.45
35878;BME280;21982;49.804;24.072;2022-09-28T07:51:24;95540.72;;;17.11;60.09
35878;BME280;21982;49.804;24.072;2022-09-28T07:53:53;95588.66;;;18.99;56.82
35878;BME280;21982;49.804;24.072;2022-09-28T07:56:20;95553.56;;;19.19;53.74
35878;BME280;21982;49.804;24.072;2022-09-28T07:58:55;95379.59;;;19.26;52.77
35878;BME280;21982;49.804;24.072;2022-09-28T08:01:24;95770.56;;;22.47;50.67
35878;BME280;21982;49.804;24.072;2022-09-28T08:04:02;95792.69;;;22.98;50.23
35878;BME280;21982;49.804;24.072;2022-09-28T08:06:34;95778.72;;;23.77;48.77
35878;BME280;21982;49.804;24.072;2022-09-28T08:09:25;95776.88;;;23.64;48.53
35878;BME280;21982;49.804;24.072;2022-09-28T08:12:09;95785.50;;;23.08;48.30
35878;BME280;21982;49.804;24.072;2022-09-28T08:14:45;95795.88;;;23.14;47.28
35878;BME280;21982;49.804;24.072;2022-09-28T08:17:11;95679.88;;;21.96;46.85
35878;BME280;21982;49.804;24.072;2022-09-28T08:19:57;95735.88;;;21.53;48.10
35878;BME280;21982;49.804;24.072;2022-09-28T08:22:48;95787.91;;;21.67;47.96
35878;BME280;21982;49.804;24.072;2022-09-28T08:25:22;95519.97;;;19.88;48.38
35878;BME280;21982;49.804;24.072;2022-09-28T08:28:06;95420.41;;;19.23;47.77
35878;BME280;21982;49.804;24.072;2022-09-28T08:30:35;95817.47;;;21.16;48.30
35878;BME280;21982;49.804;24.072;2022-09-28T08:33:14;95542.34;;;18.54;49.40
35878;BME280;21982;49.804;24.072;2022-09-28T08:35:42;95731.03;;;18.68;50.40
35878;BME280;21982;49.804;24.072;2022-09-28T08:38:08;95824.91;;;18.43;51.67
35878;BME280;21982;49.804;24.072;2022-09-28T08:41:43;95591.03;;;16.48;52.11
35878;BME280;21982;49.804;24.072;2022-09-28T08:44:11;95813.00;;;17.39;53.30
35878;BME280;21982;49.804;24.072;2022-09-28T08:46:52;95521.88;;;15.33;53.76
35878;BME280;21982;49.804;24.072;2022-09-28T08:49:51;95536.00;;;15.23;54.25
35878;BME280;21982;49.804;24.072;2022-09-28T08:52:23;95813.47;;;16.85;54.78
35878;BME280;21982;49.804;24.072;2022-09-28T08:55:27;95819.94;;;17.09;54.82
35878;BME280;21982;49.804;24.072;2022-09-28T08:58:09;95809.53;;;17.64;54.42
35878;BME280;21982;49.804;24.072;2022-09-28T09:00:50;95819.31;;;19.77;52.13
35878;BME280;21982;49.804;24.072;2022-09-28T09:03:42;95683.56;;;20.32;49.18
35878;BME280;21982;49.804;24.072;2022-09-28T09:09:11;95816.59;;;23.55;46.23
35878;BME280;21982;49.804;24.072;2022-09-28T09:20:35;95816.69;;;23.72;43.69
35878;BME280;21982;49.804;24.072;2022-09-28T09:23:14;95770.94;;;24.37;42.29
35878;BME280;21982;49.804;24.072;2022-09-28T09:25:49;95734.13;;;24.28;41.11
35878;BME280;21982;49.804;24.072;2022-09-28T09:28:42;95812.59;;;23.38;41.92
35878;BME280;21982;49.804;24.072;2022-09-28T09:34:31;95695.09;;;19.66;45.38
35878;BME280;21982;49.804;24.072;2022-09-28T09:37:15;95803.03;;;19.97;46.61
35878;BME280;21982;49.804;24.072;2022-09-28T09:39:57;95809.69;;;20.05;47.31
35878;BME280;21982;49.804;24.072;2022-09-28T09:43:01;95812.06;;;19.43;46.95
35878;BME280;21982;49.804;24.072;2022-09-28T09:48:35;95815.13;;;18.83;47.59
35878;BME280;21982;49.804;24.072;2022-09-28T09:54:33;95820.16;;;18.30;48.83
35878;BME280;21982;49.804;24.072;2022-09-28T09:57:06;95812.66;;;18.27;48.91
35878;BME280;21982;49.804;24.072;2022-09-28T09:59:41;95786.78;;;17.82;49.08
35878;BME280;21982;49.804;24.072;2022-09-28T10:02:21;95758.41;;;17.40;49.82
35878;BME280;21982;49.804;24.072;2022-09-28T10:05:01;95639.38;;;16.41;49.96
35878;BME280;21982;49.804;24.072;2022-09-28T10:07:43;95749.53;;;18.65;49.50
35878;BME280;21982;49.804;24.072;2022-09-28T10:12:42;95831.88;;;22.55;44.64
35878;BME280;21982;49.804;24.072;2022-09-28T10:15:25;95778.00;;;23.27;43.21
35878;BME280;21982;49.804;24.072;2022-09-28T10:18:04;95644.78;;;22.51;42.11
35878;BME280;21982;49.804;24.072;2022-09-28T10:20:38;95728.41;;;23.23;41.75
35878;BME280;21982;49.804;24.072;2022-09-28T10:23:23;95709.59;;;23.54;41.56
35878;BME280;21982;49.804;24.072;2022-09-28T10:25:55;95609.59;;;21.92;40.69
35878;BME280;21982;49.804;24.072;2022-09-28T10:28:49;95407.31;;;19.78;41.81
35878;BME280;21982;49.804;24.072;2022-09-28T10:31:41;95811.78;;;21.41;43.33
35878;BME280;21982;49.804;24.072;2022-09-28T10:34:11;95745.41;;;21.31;43.22
35878;BME280;21982;49.804;24.072;2022-09-28T10:42:11;95754.50;;;23.05;40.44
35878;BME280;21982;49.804;24.072;2022-09-28T10:44:58;95800.53;;;22.72;40.43
35878;BME280;21982;49.804;24.072;2022-09-28T10:47:29;95582.16;;;20.00;41.68
35878;BME280;21982;49.804;24.072;2022-09-28T10:49:57;95858.31;;;21.04;42.78
35878;BME280;21982;49.804;24.072;2022-09-28T10:52:41;95830.75;;;20.69;43.60
35878;BME280;21982;49.804;24.072;2022-09-28T10:57:51;95832.97;;;20.86;43.70
35878;BME280;21982;49.804;24.072;2022-09-28T11:00:44;95821.34;;;23.22;41.69
35878;BME280;21982;49.804;24.072;2022-09-28T11:03:39;95813.00;;;24.52;39.68
35878;BME280;21982;49.804;24.072;2022-09-28T11:06:09;95790.41;;;25.39;38.20
35878;BME280;21982;49.804;24.072;2022-09-28T11:08:41;95786.88;;;25.91;36.87
35878;BME280;21982;49.804;24.072;2022-09-28T11:11:13;95822.19;;;26.29;36.21
35878;BME280;21982;49.804;24.072;2022-09-28T11:13:48;95796.31;;;26.40;35.85
35878;BME280;21982;49.804;24.072;2022-09-28T11:16:39;95813.09;;;26.71;35.46
35878;BME280;21982;49.804;24.072;2022-09-28T11:19:26;95822.69;;;27.28;35.14
35878;BME280;21982;49.804;24.072;2022-09-28T11:21:52;95816.22;;;27.62;33.83
35878;BME280;21982;49.804;24.072;2022-09-28T11:24:20;95495.81;;;25.78;33.46
35878;BME280;21982;49.804;24.072;2022-09-28T11:26:56;95732.84;;;28.23;32.86
35878;BME280;21982;49.804;24.072;2022-09-28T11:29:39;95824.44;;;28.40;32.00
35878;BME280;21982;49.804;24.072;2022-09-28T11:32:13;95443.66;;;25.52;31.86
35878;BME280;21982;49.804;24.072;2022-09-28T11:34:48;95829.84;;;27.74;32.01
35878;BME280;21982;49.804;24.072;2022-09-28T11:40:35;95520.44;;;25.26;33.14
35878;BME280;21982;49.804;24.072;2022-09-28T11:46:00;95834.47;;;26.35;34.05
35878;BME280;21982;49.804;24.072;2022-09-28T11:48:50;95829.16;;;25.83;34.65
35878;BME280;21982;49.804;24.072;2022-09-28T11:51:27;95774.88;;;26.77;34.09
35878;BME280;21982;49.804;24.072;2022-09-28T11:54:00;95811.78;;;27.90;32.27
35878;BME280;21982;49.804;24.072;2022-09-28T11:56:37;95816.09;;;27.91;32.17
35878;BME280;21982;49.804;24.072;2022-09-28T11:59:30;95525.97;;;25.77;32.26
35878;BME280;21982;49.804;24.072;2022-09-28T12:02:35;95809.72;;;27.04;33.19
35878;BME280;21982;49.804;24.072;2022-09-28T12:05:12;95572.91;;;25.60;32.04
35878;BME280;21982;49.804;24.072;2022-09-28T12:13:40;95769.25;;;27.32;32.10
35878;BME280;21982;49.804;24.072;2022-09-28T12:16:30;95717.69;;;27.89;31.60
35878;BME280;21982;49.804;24.072;2022-09-28T12:21:48;95808.91;;;27.33;31.59
35878;BME280;21982;49.804;24.072;2022-09-28T12:28:17;95824.53;;;27.15;31.73
35878;BME280;21982;49.804;24.072;2022-09-28T12:30:49;95789.59;;;25.65;31.49
35878;BME280;21982;49.804;24.072;2022-09-28T12:33:16;95807.34;;;24.80;34.61
35878;BME280;21982;49.804;24.072;2022-09-28T12:41:13;95809.38;;;25.22;31.52
35878;BME280;21982;49.804;24.072;2022-09-28T12:43:55;95768.31;;;24.24;32.46
35878;BME280;21982;49.804;24.072;2022-09-28T13:00:12;95834.16;;;23.88;33.06
35878;BME280;21982;49.804;24.072;2022-09-28T13:08:42;95847.09;;;22.92;34.67
35878;BME280;21982;49.804;24.072;2022-09-28T13:14:16;95841.56;;;23.60;34.08
35878;BME280;21982;49.804;24.072;2022-09-28T13:17:03;95848.19;;;23.77;34.14
35878;BME280;21982;49.804;24.072;2022-09-28T13:19:45;95843.22;;;23.92;33.17
35878;BME280;21982;49.804;24.072;2022-09-28T13:23:12;95839.50;;;23.44;33.49
35878;BME280;21982;49.804;24.072;2022-09-28T13:25:21;95827.69;;;23.17;33.53
35878;BME280;21982;49.804;24.072;2022-09-28T13:28:01;95807.41;;;22.10;34.10
35878;BME280;21982;49.804;24.072;2022-09-28T13:30:27;95856.75;;;21.40;35.20
35878;BME280;21982;49.804;24.072;2022-09-28T13:32:59;95765.63;;;20.72;35.66
35878;BME280;21982;49.804;24.072;2022-09-28T13:35:26;95862.53;;;21.10;35.84
35878;BME280;21982;49.804;24.072;2022-09-28T13:49:14;95869.44;;;20.50;36.83
35878;BME280;21982;49.804;24.072;2022-09-28T13:51:48;95870.81;;;20.47;37.03
35878;BME280;21982;49.804;24.072;2022-09-28T13:54:42;95876.38;;;20.27;36.66
35878;BME280;21982;49.804;24.072;2022-09-28T13:57:17;95796.94;;;19.19;37.37
35878;BME280;21982;49.804;24.072;2022-09-28T13:59:56;95822.06;;;18.94;37.77
35878;BME280;21982;49.804;24.072;2022-09-28T14:05:43;95883.81;;;18.79;38.71
35878;BME280;21982;49.804;24.072;2022-09-28T14:08:26;95881.19;;;18.68;38.91
35878;BME280;21982;49.804;24.072;2022-09-28T14:16:43;95864.84;;;18.60;39.34
35878;BME280;21982;49.804;24.072;2022-09-28T14:19:23;95867.53;;;18.50;39.48
35878;BME280;21982;49.804;24.072;2022-09-28T14:29:42;95873.50;;;18.21;39.92
35878;BME280;21982;49.804;24.072;2022-09-28T14:34:42;95827.75;;;17.92;40.07
35878;BME280;21982;49.804;24.072;2022-09-28T14:37:32;95861.44;;;18.14;40.33
35878;BME280;21982;49.804;24.072;2022-09-28T14:40:25;95843.78;;;18.02;40.34
35878;BME280;21982;49.804;24.072;2022-09-28T14:48:52;95875.69;;;17.99;41.21
35878;BME280;21982;49.804;24.072;2022-09-28T14:53:55;95871.94;;;17.80;41.94
35878;BME280;21982;49.804;24.072;2022-09-28T14:56:26;95874.06;;;17.78;41.80
35878;BME280;21982;49.804;24.072;2022-09-28T14:58:55;95832.00;;;17.42;41.96
35878;BME280;21982;49.804;24.072;2022-09-28T15:01:22;95854.78;;;17.55;42.14
35878;BME280;21982;49.804;24.072;2022-09-28T15:03:57;95852.91;;;17.61;41.93
35878;BME280;21982;49.804;24.072;2022-09-28T15:06:23;95878.63;;;17.67;42.20
35878;BME280;21982;49.804;24.072;2022-09-28T15:08:49;95791.34;;;17.56;42.05
35878;BME280;21982;49.804;24.072;2022-09-28T15:11:23;95809.00;;;17.97;41.24
35878;BME280;21982;49.804;24.072;2022-09-28T15:13:50;95846.97;;;18.15;41.45
35878;BME280;21982;49.804;24.072;2022-09-28T15:16:29;95801.16;;;18.26;41.29
35878;BME280;21982;49.804;24.072;2022-09-28T15:19:11;95879.47;;;18.88;40.95
35878;BME280;21982;49.804;24.072;2022-09-28T15:21:43;95890.84;;;18.49;41.44
35878;BME280;21982;49.804;24.072;2022-09-28T15:24:38;95882.06;;;18.23;41.72
35878;BME280;21982;49.804;24.072;2022-09-28T15:27:14;95873.75;;;18.20;41.96
35878;BME280;21982;49.804;24.072;2022-09-28T15:29:39;95851.31;;;17.90;42.30
35878;BME280;21982;49.804;24.072;2022-09-28T15:32:05;95864.16;;;17.78;42.42
35878;BME280;21982;49.804;24.072;2022-09-28T15:34:35;95854.50;;;17.62;42.76
35878;BME280;21982;49.804;24.072;2022-09-28T15:37:28;95880.22;;;17.68;43.12
35878;BME280;21982;49.804;24.072;2022-09-28T15:39:57;95853.94;;;17.34;43.32
35878;BME280;21982;49.804;24.072;2022-09-28T15:42:34;95892.22;;;17.45;43.45
35878;BME280;21982;49.804;24.072;2022-09-28T15:45:24;95885.00;;;17.30;43.95
35878;BME280;21982;49.804;24.072;2022-09-28T15:51:10;95922.59;;;16.93;44.86
35878;BME280;21982;49.804;24.072;2022-09-28T15:56:20;95894.91;;;16.62;45.82
35878;BME280;21982;49.804;24.072;2022-09-28T15:59:24;95893.19;;;16.46;45.97
35878;BME280;21982;49.804;24.072;2022-09-28T16:02:16;95814.06;;;15.83;46.58
35878;BME280;21982;49.804;24.072;2022-09-28T16:05:19;95678.09;;;14.55;47.23
35878;BME280;21982;49.804;24.072;2022-09-28T16:07:52;95854.81;;;15.73;47.09
35878;BME280;21982;49.804;24.072;2022-09-28T16:10:32;95838.13;;;15.56;47.61
35878;BME280;21982;49.804;24.072;2022-09-28T16:13:16;95670.19;;;14.38;48.08